createdAt,value
2019-03-29T00:02:41.326Z,42.63
2019-03-29T00:05:31.094Z,88.47
2019-03-29T00:08:20.345Z,52.87
2019-03-29T00:10:59.519Z,39.30
2019-03-29T00:13:47.927Z,36.80
2019-03-29T00:16:34.764Z,34.50
2019-03-29T00:19:19.279Z,31.93
2019-03-29T00:22:01.064Z,36.60
2019-03-29T00:24:44.234Z,37.70
2019-03-29T00:27:32.684Z,45.80
2019-03-29T00:30:25.902Z,34.50
2019-03-29T00:33:14.395Z,33.40
2019-03-29T00:36:10.620Z,35.63
2019-03-29T00:39:00.367Z,32.73
2019-03-29T00:41:42.272Z,35.70
2019-03-29T00:44:45.142Z,34.53
2019-03-29T00:47:25.735Z,36.80
2019-03-29T00:50:07.735Z,36.70
2019-03-29T00:52:51.957Z,37.97
2019-03-29T00:55:42.451Z,37.10
2019-03-29T00:58:22.856Z,36.40
2019-03-29T01:01:06.158Z,37.13
2019-03-29T01:03:50.980Z,37.87
2019-03-29T01:06:36.275Z,37.60
2019-03-29T01:09:24.830Z,42.73
2019-03-29T01:12:08.895Z,37.27
2019-03-29T01:14:55.004Z,36.33
2019-03-29T01:17:38.482Z,36.23
2019-03-29T01:20:25.363Z,37.03
2019-03-29T01:23:19.167Z,35.63
2019-03-29T01:26:05.774Z,37.63
2019-03-29T01:28:58.263Z,39.37
2019-03-29T01:31:40.217Z,36.97
2019-03-29T01:34:26.325Z,33.07
2019-03-29T01:37:09.034Z,35.77
2019-03-29T01:39:52.087Z,41.88
2019-03-29T01:42:39.667Z,33.63
2019-03-29T01:45:21.121Z,35.30
2019-03-29T01:48:01.120Z,32.93
2019-03-29T01:50:44.919Z,36.47
2019-03-29T01:53:34.400Z,40.50
2019-03-29T01:56:21.331Z,41.57
2019-03-29T01:59:17.289Z,37.20
2019-03-29T02:02:00.542Z,44.30
2019-03-29T02:04:41.819Z,40.77
2019-03-29T02:07:27.349Z,38.53
2019-03-29T02:10:23.542Z,41.80
2019-03-29T02:13:29.710Z,35.87
2019-03-29T02:16:10.450Z,56.83
2019-03-29T02:18:57.134Z,40.33
2019-03-29T02:21:48.452Z,39.43
2019-03-29T02:24:45.915Z,39.20
2019-03-29T02:27:31.231Z,45.83
2019-03-29T02:30:09.139Z,40.17
2019-03-29T02:32:47.746Z,39.80
2019-03-29T02:35:29.256Z,40.47
2019-03-29T02:38:13.377Z,40.93
2019-03-29T02:40:58.969Z,40.53
2019-03-29T02:43:41.798Z,38.93
2019-03-29T02:46:30.544Z,43.93
2019-03-29T02:49:13.189Z,41.33
2019-03-29T02:51:59.985Z,36.57
2019-03-29T02:54:43.203Z,38.60
2019-03-29T02:57:28.167Z,40.03
2019-03-29T03:00:08.878Z,40.13
2019-03-29T03:02:54.055Z,36.00
2019-03-29T03:05:35.999Z,37.10
2019-03-29T03:08:21.779Z,39.67
2019-03-29T03:11:12.754Z,38.77
2019-03-29T03:13:53.990Z,41.00
2019-03-29T03:16:36.514Z,38.47
2019-03-29T03:19:21.649Z,41.73
2019-03-29T03:22:08.266Z,48.83
2019-03-29T03:24:50.838Z,46.80
2019-03-29T03:27:40.582Z,51.88
2019-03-29T03:30:23.037Z,42.83
2019-03-29T03:33:03.221Z,41.57
2019-03-29T03:35:48.646Z,40.40
2019-03-29T03:38:29.212Z,38.73
2019-03-29T03:41:20.011Z,41.60
2019-03-29T03:44:04.123Z,40.37
2019-03-29T03:46:49.369Z,39.13
2019-03-29T03:49:36.483Z,38.17
2019-03-29T03:52:23.349Z,48.43
2019-03-29T03:55:05.000Z,61.60
2019-03-29T03:58:00.201Z,53.87
2019-03-29T04:01:12.339Z,76.42
2019-03-29T04:03:52.428Z,43.00
2019-03-29T04:06:55.862Z,46.97
2019-03-29T04:09:51.628Z,45.57
2019-03-29T04:12:58.045Z,42.87
2019-03-29T04:15:41.262Z,70.57
2019-03-29T04:18:31.686Z,47.40
2019-03-29T04:21:14.033Z,48.67
2019-03-29T04:24:07.505Z,60.90
2019-03-29T04:26:52.709Z,52.57
2019-03-29T04:29:36.297Z,74.80
2019-03-29T04:32:21.114Z,58.75
2019-03-29T04:35:09.586Z,50.07
2019-03-29T04:38:16.572Z,50.33
2019-03-29T04:41:06.912Z,46.50
2019-03-29T04:44:32.438Z,47.07
2019-03-29T04:47:30.112Z,49.00
2019-03-29T04:50:13.241Z,53.13
2019-03-29T04:52:55.813Z,104.57
2019-03-29T04:55:39.445Z,57.33
2019-03-29T04:58:24.314Z,66.43
2019-03-29T05:01:59.863Z,58.10
2019-03-29T05:05:06.196Z,55.03
2019-03-29T05:07:52.664Z,62.75
2019-03-29T05:10:42.368Z,46.50
2019-03-29T05:13:47.229Z,43.23
2019-03-29T05:16:41.602Z,40.50
2019-03-29T05:19:31.828Z,40.03
2019-03-29T05:22:15.420Z,37.80
2019-03-29T05:25:06.915Z,46.93
2019-03-29T05:27:56.475Z,42.33
2019-03-29T05:30:47.910Z,42.87
2019-03-29T05:33:31.400Z,41.43
2019-03-29T05:36:32.456Z,38.73
2019-03-29T05:39:18.152Z,45.38
2019-03-29T05:42:20.030Z,35.17
2019-03-29T05:45:25.312Z,30.70
2019-03-29T05:48:13.739Z,34.23
2019-03-29T05:50:58.015Z,37.40
2019-03-29T05:53:51.153Z,31.27
2019-03-29T05:56:39.719Z,29.57
2019-03-29T05:59:29.236Z,28.00
2019-03-29T06:02:29.939Z,30.17
2019-03-29T06:05:21.280Z,39.67
2019-03-29T06:08:12.439Z,31.17
2019-03-29T06:10:54.350Z,33.88
2019-03-29T06:13:42.434Z,29.80
2019-03-29T06:16:56.652Z,27.83
2019-03-29T06:19:38.773Z,28.43
2019-03-29T06:22:23.958Z,27.97
2019-03-29T06:25:24.725Z,27.03
2019-03-29T06:28:05.732Z,26.17
2019-03-29T06:31:05.111Z,28.97
2019-03-29T06:33:49.597Z,27.20
2019-03-29T06:36:44.696Z,27.33
2019-03-29T06:39:33.249Z,28.70
2019-03-29T06:42:21.919Z,25.83
2019-03-29T06:45:08.474Z,28.27
2019-03-29T06:48:02.331Z,25.37
2019-03-29T06:50:51.798Z,24.63
2019-03-29T06:53:52.628Z,23.83
2019-03-29T06:56:56.065Z,27.40
2019-03-29T06:59:49.818Z,31.50
2019-03-29T07:03:04.538Z,24.83
2019-03-29T07:05:49.145Z,24.27
2019-03-29T07:08:52.995Z,24.50
2019-03-29T07:11:39.769Z,23.57
2019-03-29T07:14:32.717Z,23.10
2019-03-29T07:17:26.151Z,21.67
2019-03-29T07:20:19.111Z,21.83
2019-03-29T07:23:19.067Z,20.50
2019-03-29T07:26:06.721Z,21.73
2019-03-29T07:28:54.185Z,20.23
2019-03-29T07:31:43.434Z,21.97
2019-03-29T07:34:42.288Z,21.27
2019-03-29T07:37:32.668Z,20.40
2019-03-29T07:40:28.696Z,23.60
2019-03-29T07:43:23.990Z,20.23
2019-03-29T07:46:09.181Z,20.13
2019-03-29T07:49:26.240Z,20.63
2019-03-29T07:52:28.317Z,21.23
2019-03-29T07:55:14.650Z,19.60
2019-03-29T07:57:57.882Z,22.10
2019-03-29T08:01:32.406Z,20.70
2019-03-29T08:04:21.738Z,20.17
2019-03-29T08:07:27.529Z,22.63
2019-03-29T08:10:23.622Z,22.43
2019-03-29T08:13:09.812Z,23.93
2019-03-29T08:16:06.583Z,20.97
2019-03-29T08:18:49.490Z,20.37
2019-03-29T08:21:57.705Z,19.30
2019-03-29T08:24:46.169Z,20.17
2019-03-29T08:27:41.330Z,19.87
2019-03-29T08:30:29.887Z,21.27
2019-03-29T08:33:12.514Z,22.10
2019-03-29T08:35:59.344Z,20.70
2019-03-29T08:38:46.628Z,20.77
2019-03-29T08:41:27.463Z,20.80
2019-03-29T08:44:13.051Z,20.77
2019-03-29T08:46:57.893Z,20.80
2019-03-29T08:49:59.782Z,22.00
2019-03-29T08:52:45.927Z,20.30
2019-03-29T08:55:27.891Z,19.87
2019-03-29T08:58:13.239Z,19.60
2019-03-29T09:01:19.594Z,20.10
2019-03-29T09:04:06.448Z,19.77
2019-03-29T09:06:54.423Z,18.80
2019-03-29T09:09:36.480Z,21.23
2019-03-29T09:12:32.358Z,26.40
2019-03-29T09:15:22.369Z,22.10
2019-03-29T09:18:15.211Z,28.67
2019-03-29T09:21:09.115Z,31.68
2019-03-29T09:23:58.667Z,28.03
2019-03-29T09:26:41.646Z,22.67
2019-03-29T09:29:25.548Z,24.83
2019-03-29T09:32:19.862Z,27.60
2019-03-29T09:35:07.950Z,26.23
2019-03-29T09:37:52.479Z,24.17
2019-03-29T09:40:39.620Z,23.97
2019-03-29T09:43:29.867Z,22.07
2019-03-29T09:46:13.272Z,26.50
2019-03-29T09:49:22.774Z,25.13
2019-03-29T09:52:02.326Z,23.20
2019-03-29T09:54:46.295Z,26.13
2019-03-29T09:57:37.215Z,22.93
2019-03-29T10:00:22.997Z,22.07
2019-03-29T10:03:16.238Z,21.13
2019-03-29T10:06:18.892Z,20.50
2019-03-29T10:09:00.543Z,21.80
2019-03-29T10:11:58.416Z,19.63
2019-03-29T10:14:42.207Z,19.93
2019-03-29T10:17:24.981Z,20.33
2019-03-29T10:20:16.891Z,21.77
2019-03-29T10:23:40.247Z,40.43
2019-03-29T10:26:32.058Z,33.13
2019-03-29T10:29:36.785Z,34.13
2019-03-29T10:32:25.142Z,30.87
2019-03-29T10:35:19.000Z,36.07
2019-03-29T10:38:09.170Z,38.07
2019-03-29T10:41:04.701Z,37.33
2019-03-29T10:43:51.183Z,31.00
2019-03-29T10:46:39.274Z,35.57
2019-03-29T10:49:28.348Z,33.37
2019-03-29T10:52:18.265Z,46.17
2019-03-29T10:55:09.035Z,78.43
2019-03-29T10:58:09.833Z,48.70
2019-03-29T11:01:14.595Z,42.73
2019-03-29T11:04:09.807Z,37.10
2019-03-29T11:16:27.651Z,39.17
2019-03-29T11:19:21.213Z,40.60
2019-03-29T11:22:03.028Z,39.37
2019-03-29T11:27:53.759Z,40.27
2019-03-29T11:30:42.758Z,40.30
2019-03-29T11:33:33.950Z,52.60
2019-03-29T11:36:17.364Z,41.97
2019-03-29T11:39:06.219Z,41.17
2019-03-29T11:45:35.676Z,29.07
2019-03-29T11:48:19.974Z,31.77
2019-03-29T11:51:19.756Z,31.17
2019-03-29T11:54:04.462Z,33.67
2019-03-29T11:56:49.217Z,70.22
2019-03-29T11:59:33.170Z,142.67
2019-03-29T12:02:31.468Z,83.80
2019-03-29T12:05:30.861Z,120.93
2019-03-29T12:08:26.109Z,63.30
2019-03-29T12:11:26.135Z,48.47
2019-03-29T12:14:36.215Z,53.17
2019-03-29T12:17:56.224Z,53.50
2019-03-29T12:20:56.497Z,45.60
2019-03-29T12:23:46.030Z,49.63
2019-03-29T12:26:38.569Z,78.33
2019-03-29T12:29:46.543Z,81.50
2019-03-29T12:32:50.224Z,56.57
2019-03-29T12:36:17.388Z,47.73
2019-03-29T12:39:07.782Z,51.50
2019-03-29T12:45:30.163Z,50.40
2019-03-29T12:48:18.464Z,51.47
2019-03-29T12:51:34.538Z,57.60
2019-03-29T12:54:58.094Z,52.37
2019-03-29T12:57:44.810Z,43.10
2019-03-29T13:04:28.739Z,41.07
2019-03-29T13:07:53.400Z,38.40
2019-03-29T13:10:42.363Z,45.60
2019-03-29T13:13:42.451Z,54.77
2019-03-29T13:17:12.376Z,50.60
2019-03-29T13:20:26.642Z,42.13
2019-03-29T13:23:26.803Z,41.47
2019-03-29T13:26:36.493Z,41.30
2019-03-29T13:29:35.825Z,45.07
2019-03-29T13:36:15.881Z,44.60
2019-03-29T13:39:01.644Z,40.73
2019-03-29T13:42:06.119Z,40.20
2019-03-29T13:48:44.245Z,34.83
2019-03-29T13:52:03.715Z,32.93
2019-03-29T13:55:37.305Z,35.80
2019-03-29T13:58:43.222Z,34.57
2019-03-29T14:02:02.836Z,34.57
2019-03-29T14:04:51.106Z,43.58
2019-03-29T14:08:05.826Z,38.10
2019-03-29T14:11:03.576Z,40.77
2019-03-29T14:14:11.218Z,36.50
2019-03-29T14:17:36.871Z,38.97
2019-03-29T14:21:15.871Z,39.43
2019-03-29T14:24:35.418Z,39.10
2019-03-29T14:27:47.235Z,38.50
2019-03-29T14:31:20.989Z,40.07
2019-03-29T14:34:58.569Z,38.83
2019-03-29T14:38:17.830Z,46.68
2019-03-29T14:41:46.053Z,37.40
2019-03-29T14:44:52.598Z,38.03
2019-03-29T14:47:43.963Z,45.57
2019-03-29T14:50:53.848Z,42.43
2019-03-29T14:57:47.022Z,42.63
2019-03-29T15:00:57.317Z,42.03
2019-03-29T15:04:22.359Z,49.83
2019-03-29T15:07:38.342Z,44.87
2019-03-29T15:10:39.278Z,49.93
2019-03-29T15:14:06.518Z,42.73
2019-03-29T15:17:24.216Z,41.50
2019-03-29T15:20:52.686Z,41.83
2019-03-29T15:24:08.569Z,42.20
2019-03-29T15:27:25.082Z,39.23
2019-03-29T15:30:24.516Z,40.07
2019-03-29T15:33:51.552Z,40.97
2019-03-29T15:40:06.233Z,57.73
2019-03-29T15:43:06.186Z,96.85
2019-03-29T15:46:03.502Z,124.07
2019-03-29T15:49:19.754Z,76.50
2019-03-29T15:55:48.633Z,51.33
2019-03-29T15:58:52.878Z,44.10
2019-03-29T16:02:00.072Z,45.53
2019-03-29T16:05:22.359Z,40.90
2019-03-29T16:08:30.418Z,42.70
2019-03-29T16:11:23.869Z,209.60
2019-03-29T16:14:13.840Z,142.07
2019-03-29T16:17:21.744Z,90.07
2019-03-29T16:20:14.403Z,60.53
2019-03-29T16:23:08.102Z,54.40
2019-03-29T16:26:06.536Z,50.33
2019-03-29T16:29:10.352Z,51.63
2019-03-29T16:32:21.517Z,121.23
2019-03-29T16:35:22.643Z,96.73
2019-03-29T16:38:35.080Z,58.33
2019-03-29T16:41:44.750Z,48.83
2019-03-29T16:44:35.994Z,47.40
2019-03-29T16:47:56.483Z,47.33
2019-03-29T16:51:05.374Z,50.33
2019-03-29T16:54:09.396Z,48.33
2019-03-29T16:56:54.392Z,48.37
2019-03-29T17:00:00.783Z,49.07
2019-03-29T17:03:06.726Z,48.23
2019-03-29T17:06:36.761Z,51.97
2019-03-29T17:09:22.048Z,49.43
2019-03-29T17:12:12.411Z,53.50
2019-03-29T17:14:58.046Z,53.43
2019-03-29T17:17:45.121Z,51.10
2019-03-29T17:20:34.583Z,51.40
2019-03-29T17:23:35.426Z,52.57
2019-03-29T17:26:28.024Z,62.48
2019-03-29T17:29:14.537Z,55.03
2019-03-29T17:31:59.324Z,55.73
2019-03-29T17:34:54.434Z,57.47
2019-03-29T17:37:37.056Z,54.20
2019-03-29T17:40:19.308Z,53.37
2019-03-29T17:43:02.393Z,56.03
2019-03-29T17:45:41.743Z,55.60
2019-03-29T17:48:23.922Z,55.40
2019-03-29T17:51:17.512Z,56.53
2019-03-29T17:53:55.678Z,56.57
2019-03-29T17:56:37.040Z,57.93
2019-03-29T17:59:25.588Z,66.05
2019-03-29T18:02:14.762Z,60.10
2019-03-29T18:05:06.885Z,57.30
2019-03-29T18:07:48.695Z,59.53
2019-03-29T18:10:29.696Z,58.87
2019-03-29T18:13:25.202Z,57.57
2019-03-29T18:16:11.386Z,56.27
2019-03-29T18:18:52.702Z,56.50
2019-03-29T18:21:40.348Z,59.03
2019-03-29T18:24:21.812Z,61.10
2019-03-29T18:27:05.109Z,58.60
2019-03-29T18:32:42.547Z,58.90
2019-03-29T18:35:25.501Z,68.90
2019-03-29T18:38:24.876Z,60.50
2019-03-29T18:41:09.572Z,62.40
2019-03-29T18:43:52.357Z,59.43
2019-03-29T18:46:44.552Z,60.90
2019-03-29T18:49:17.901Z,61.53
2019-03-29T18:51:58.085Z,63.60
2019-03-29T18:54:49.534Z,64.27
2019-03-29T18:57:32.345Z,58.63
2019-03-29T19:00:21.785Z,66.07
2019-03-29T19:03:11.885Z,61.30
2019-03-29T19:05:54.386Z,62.00
2019-03-29T19:08:42.027Z,58.83
2019-03-29T19:11:18.791Z,60.27
2019-03-29T19:14:12.914Z,62.60
2019-03-29T19:16:59.127Z,64.20
2019-03-29T19:19:39.876Z,62.27
2019-03-29T19:22:22.398Z,61.13
2019-03-29T19:25:08.249Z,58.70
2019-03-29T19:27:49.193Z,64.00
2019-03-29T19:30:31.051Z,62.20
2019-03-29T19:33:11.504Z,62.83
2019-03-29T19:35:52.812Z,66.27
2019-03-29T19:38:33.421Z,63.47
2019-03-29T19:41:14.464Z,65.17
2019-03-29T19:44:06.562Z,62.63
2019-03-29T19:46:51.784Z,72.50
2019-03-29T19:49:37.175Z,61.97
2019-03-29T19:52:20.249Z,60.63
2019-03-29T19:55:05.381Z,55.07
2019-03-29T19:57:47.363Z,64.00
2019-03-29T20:00:49.551Z,61.50
2019-03-29T20:03:44.065Z,61.33
2019-03-29T20:06:25.855Z,64.20
2019-03-29T20:09:12.835Z,61.60
2019-03-29T20:11:59.758Z,57.53
2019-03-29T20:14:44.046Z,56.63
2019-03-29T20:17:27.665Z,56.73
2019-03-29T20:20:12.657Z,55.73
2019-03-29T20:22:54.596Z,49.87
2019-03-29T20:25:36.440Z,55.90
2019-03-29T20:28:21.022Z,50.10
2019-03-29T20:31:08.647Z,49.30
2019-03-29T20:33:49.989Z,50.73
2019-03-29T20:36:35.345Z,51.77
2019-03-29T20:39:15.120Z,50.47
2019-03-29T20:41:58.354Z,50.37
2019-03-29T20:44:37.521Z,47.93
2019-03-29T20:47:17.782Z,49.20
2019-03-29T20:49:57.242Z,49.50
2019-03-29T20:52:40.797Z,49.70
2019-03-29T20:55:24.309Z,48.00
2019-03-29T20:58:12.445Z,51.23
2019-03-29T21:00:54.239Z,48.17
2019-03-29T21:03:46.402Z,47.03
2019-03-29T21:06:28.163Z,46.67
2019-03-29T21:09:08.093Z,48.87
2019-03-29T21:11:51.984Z,46.03
2019-03-29T21:14:33.366Z,49.67
2019-03-29T21:17:16.530Z,49.53
2019-03-29T21:19:59.186Z,49.60
2019-03-29T21:22:44.440Z,49.03
2019-03-29T21:25:27.568Z,48.23
2019-03-29T21:28:07.152Z,50.50
2019-03-29T21:30:49.126Z,50.13
2019-03-29T21:33:32.174Z,54.88
2019-03-29T21:36:18.113Z,52.27
2019-03-29T21:38:57.227Z,51.47
2019-03-29T21:41:36.502Z,49.63
2019-03-29T21:44:20.090Z,49.37
2019-03-29T21:47:02.376Z,48.87
2019-03-29T21:49:47.619Z,51.43
2019-03-29T21:52:28.112Z,51.33
2019-03-29T21:55:08.404Z,52.33
2019-03-29T21:57:54.658Z,50.67
2019-03-29T22:00:43.827Z,53.73
2019-03-29T22:03:29.688Z,52.53
2019-03-29T22:06:07.202Z,50.50
2019-03-29T22:08:47.761Z,54.75
2019-03-29T22:11:32.275Z,55.27
2019-03-29T22:14:12.681Z,56.03
2019-03-29T22:16:54.332Z,54.43
2019-03-29T22:19:36.925Z,55.63
2019-03-29T22:22:22.185Z,52.60
2019-03-29T22:25:05.371Z,54.90
2019-03-29T22:27:52.579Z,55.03
2019-03-29T22:30:35.012Z,60.47
2019-03-29T22:33:22.938Z,59.27
2019-03-29T22:36:04.107Z,61.30
2019-03-29T22:38:44.050Z,70.27
2019-03-29T22:41:31.507Z,61.93
2019-03-29T22:44:13.599Z,60.00
2019-03-29T22:46:55.091Z,56.13
2019-03-29T22:49:34.015Z,58.70
2019-03-29T22:52:14.289Z,57.47
2019-03-29T22:54:58.336Z,60.23
2019-03-29T22:57:38.300Z,58.77
2019-03-29T23:00:23.511Z,56.00
2019-03-29T23:03:07.189Z,59.67
2019-03-29T23:05:53.688Z,57.93
2019-03-29T23:08:39.053Z,57.90
2019-03-29T23:11:25.188Z,57.97
2019-03-29T23:14:06.381Z,54.77
2019-03-29T23:16:45.419Z,57.10
2019-03-29T23:19:29.168Z,57.10
2019-03-29T23:22:12.401Z,55.70
2019-03-29T23:24:51.574Z,59.57
2019-03-29T23:27:31.524Z,55.60
2019-03-29T23:30:17.321Z,55.03
2019-03-29T23:33:01.200Z,57.10
2019-03-29T23:35:49.280Z,53.17
2019-03-29T23:38:32.622Z,54.53
2019-03-29T23:41:15.477Z,55.60
2019-03-29T23:47:03.386Z,54.03
2019-03-29T23:49:47.191Z,50.60
2019-03-29T23:52:42.632Z,48.17
2019-03-29T23:55:24.587Z,53.28
2019-03-29T23:58:11.223Z,46.13
